Time;durP1;ratioP1;P1;durP2;ratioP2;P2;SDS_P1;SDS_P2;PMS_P1;PMS_P2;Temp;Humidity;BMP_temperature;BMP_pressure;BME280_temperature;BME280_humidity;BME280_pressure;Samples;Min_cycle;Max_cycle;Signal;HPM_P1;HPM_P2
2023/07/18 00:02:35;;;;;;;5.97;1.70;;;15.40;99.90;;;;;;6226805;28;20413;-79
2023/07/18 00:05:37;;;;;;;3.42;2.20;;;15.30;99.90;;;;;;6225307;28;20068;-79
2023/07/18 00:08:40;;;;;;;2.53;1.98;;;15.30;99.90;;;;;;6220646;28;20045;-79
2023/07/18 00:11:42;;;;;;;2.13;1.85;;;15.30;99.90;;;;;;6226665;28;20196;-78
2023/07/18 00:14:45;;;;;;;5.15;2.42;;;15.30;99.90;;;;;;6227354;28;20077;-78
2023/07/18 00:17:46;;;;;;;3.05;1.73;;;15.20;99.90;;;;;;6226226;28;20054;-79
2023/07/18 00:20:48;;;;;;;2.45;2.10;;;15.20;99.90;;;;;;6225784;28;20046;-79
2023/07/18 00:23:50;;;;;;;4.57;3.45;;;15.10;99.90;;;;;;6225475;28;20038;-79
2023/07/18 00:26:52;;;;;;;1.98;1.75;;;15.00;99.90;;;;;;6225608;28;20088;-78
2023/07/18 00:29:56;;;;;;;5.75;2.13;;;15.00;99.90;;;;;;6225513;28;20052;-81
2023/07/18 00:32:57;;;;;;;3.60;1.60;;;15.00;99.90;;;;;;6225558;28;20038;-79
2023/07/18 00:35:59;;;;;;;2.75;1.65;;;15.10;99.90;;;;;;6226001;28;20068;-79
2023/07/18 00:39:01;;;;;;;5.80;2.55;;;15.10;99.90;;;;;;6225364;28;20050;-79
2023/07/18 00:42:02;;;;;;;7.55;1.67;;;15.20;99.90;;;;;;6226554;28;20046;-79
2023/07/18 00:45:07;;;;;;;3.25;2.42;;;15.20;99.90;;;;;;6226523;28;20050;-80
2023/07/18 00:48:10;;;;;;;3.45;1.98;;;15.20;99.90;;;;;;6226504;28;20046;-80
2023/07/18 00:51:12;;;;;;;2.45;2.00;;;15.20;99.90;;;;;;6226666;28;20080;-79
2023/07/18 00:54:14;;;;;;;4.18;1.75;;;15.30;99.90;;;;;;6225896;28;20046;-79
2023/07/18 00:57:15;;;;;;;3.50;1.63;;;15.30;99.90;;;;;;6225738;28;20046;-79
2023/07/18 01:00:22;;;;;;;9.77;1.90;;;15.30;99.90;;;;;;6225102;28;20057;-79
2023/07/18 01:03:24;;;;;;;3.53;2.03;;;15.30;99.90;;;;;;6226891;28;20042;-79
2023/07/18 01:06:25;;;;;;;3.30;1.92;;;15.30;99.90;;;;;;6226948;28;20053;-79
2023/07/18 01:09:27;;;;;;;4.40;1.70;;;15.40;99.90;;;;;;6226827;28;20054;-79
2023/07/18 01:12:29;;;;;;;2.65;1.70;;;15.40;99.90;;;;;;6226770;28;20042;-81
2023/07/18 01:15:33;;;;;;;4.45;1.98;;;15.40;99.90;;;;;;6227513;28;20061;-79
2023/07/18 01:18:37;;;;;;;2.42;1.98;;;15.40;99.90;;;;;;6251445;28;20060;-80
2023/07/18 01:21:42;;;;;;;5.18;2.13;;;15.30;99.90;;;;;;6251674;28;20054;-79
2023/07/18 01:24:43;;;;;;;3.35;1.80;;;15.20;99.90;;;;;;6252624;28;20124;-79
2023/07/18 01:27:45;;;;;;;3.45;2.10;;;15.20;99.90;;;;;;6251050;28;20049;-79
2023/07/18 01:30:48;;;;;;;3.70;2.17;;;15.10;99.90;;;;;;6251792;28;20072;-79
2023/07/18 01:33:50;;;;;;;6.10;3.70;;;15.00;99.90;;;;;;6251998;28;20061;-79
2023/07/18 01:36:54;;;;;;;4.60;2.22;;;14.80;99.90;;;;;;6252429;28;20045;-79
2023/07/18 01:39:56;;;;;;;3.05;2.20;;;14.70;99.90;;;;;;6252209;28;20053;-79
2023/07/18 01:42:59;;;;;;;4.32;2.10;;;14.60;99.90;;;;;;6252727;28;20052;-79
2023/07/18 01:46:01;;;;;;;6.10;3.33;;;14.60;99.90;;;;;;6252497;28;20041;-81
2023/07/18 01:49:03;;;;;;;2.95;2.42;;;14.60;99.90;;;;;;6252957;28;20075;-79
2023/07/18 01:52:07;;;;;;;2.65;2.45;;;14.60;99.90;;;;;;6251712;28;20408;-79
2023/07/18 01:55:09;;;;;;;2.72;2.13;;;14.50;99.90;;;;;;6252997;28;20049;-80
2023/07/18 01:58:11;;;;;;;4.20;2.60;;;14.50;99.90;;;;;;6250108;28;20053;-80
2023/07/18 02:01:13;;;;;;;3.13;1.95;;;14.40;99.90;;;;;;6251947;28;20045;-80
2023/07/18 02:04:15;;;;;;;4.78;1.60;;;14.30;99.90;;;;;;6253410;28;20415;-80
2023/07/18 02:07:18;;;;;;;3.63;2.20;;;14.30;99.90;;;;;;6252715;28;20064;-79
2023/07/18 02:10:21;;;;;;;3.33;2.20;;;14.30;99.90;;;;;;6252661;28;20045;-81
2023/07/18 02:13:23;;;;;;;4.18;2.67;;;14.20;99.90;;;;;;6258159;28;20051;-79
2023/07/18 02:16:24;;;;;;;4.57;2.30;;;14.10;99.90;;;;;;6258252;28;20041;-80
2023/07/18 02:19:26;;;;;;;9.13;2.67;;;14.10;99.90;;;;;;6257183;28;20046;-80
2023/07/18 02:22:29;;;;;;;3.83;3.10;;;14.10;99.90;;;;;;6257032;28;20053;-79
2023/07/18 02:25:31;;;;;;;4.10;2.42;;;14.10;99.90;;;;;;6255724;28;20045;-80
2023/07/18 02:28:32;;;;;;;4.57;2.60;;;14.00;99.90;;;;;;6256662;28;20240;-80
2023/07/18 02:31:34;;;;;;;5.85;2.50;;;14.00;99.90;;;;;;6257144;28;20064;-80
2023/07/18 02:34:38;;;;;;;5.43;2.25;;;14.00;99.90;;;;;;6256887;28;20041;-79
2023/07/18 02:37:41;;;;;;;4.05;2.40;;;13.90;99.90;;;;;;6254867;28;20056;-80
2023/07/18 02:40:43;;;;;;;3.92;2.30;;;13.90;99.90;;;;;;6255767;28;20063;-79
2023/07/18 02:43:44;;;;;;;4.93;2.55;;;13.90;99.90;;;;;;6256263;28;20049;-80
2023/07/18 02:46:46;;;;;;;2.40;2.10;;;13.80;99.90;;;;;;6257118;28;20053;-79
2023/07/18 02:49:48;;;;;;;3.50;2.30;;;13.70;99.90;;;;;;6257404;28;20428;-81
2023/07/18 02:52:51;;;;;;;8.55;2.45;;;13.70;99.90;;;;;;6257849;28;20045;-80
2023/07/18 02:55:52;;;;;;;5.03;2.28;;;13.70;99.90;;;;;;6256472;28;20068;-79
2023/07/18 02:58:54;;;;;;;2.40;2.17;;;13.70;99.90;;;;;;6256673;28;20046;-79
2023/07/18 03:01:57;;;;;;;4.20;2.10;;;13.70;99.90;;;;;;6256742;28;20049;-80
2023/07/18 03:04:59;;;;;;;5.00;2.60;;;13.60;99.90;;;;;;6256215;28;20459;-79
2023/07/18 03:08:03;;;;;;;5.25;2.10;;;13.60;99.90;;;;;;6255829;28;20072;-80
2023/07/18 03:11:05;;;;;;;3.72;2.47;;;13.60;99.90;;;;;;6256225;28;20050;-79
2023/07/18 03:14:07;;;;;;;5.85;2.63;;;13.50;99.90;;;;;;6256841;28;20041;-80
2023/07/18 03:17:09;;;;;;;4.00;2.30;;;13.50;99.90;;;;;;6256611;28;20045;-81
2023/07/18 03:20:16;;;;;;;2.53;2.08;;;13.50;99.90;;;;;;6257857;28;20145;-80
2023/07/18 03:23:21;;;;;;;4.55;2.63;;;13.50;99.90;;;;;;6256549;28;20045;-80
2023/07/18 03:26:22;;;;;;;6.25;2.13;;;13.50;99.90;;;;;;6257000;28;20060;-81
2023/07/18 03:29:24;;;;;;;5.43;2.55;;;13.50;99.90;;;;;;6256954;28;20048;-80
2023/07/18 03:32:26;;;;;;;3.75;2.00;;;13.60;99.90;;;;;;6253027;28;20041;-78
2023/07/18 03:35:28;;;;;;;6.97;3.28;;;13.60;99.90;;;;;;6252676;28;20045;-81
2023/07/18 03:38:31;;;;;;;4.28;1.70;;;13.60;99.90;;;;;;6253908;28;20129;-80
2023/07/18 03:41:33;;;;;;;4.75;2.10;;;13.50;99.90;;;;;;6254221;28;20520;-80
2023/07/18 03:44:34;;;;;;;11.68;4.10;;;13.50;99.90;;;;;;6254309;28;20068;-79
2023/07/18 03:47:37;;;;;;;7.63;3.78;;;13.50;99.90;;;;;;6253685;28;20080;-80
2023/07/18 03:50:41;;;;;;;11.85;3.15;;;13.60;99.90;;;;;;6255593;28;20056;-80
2023/07/18 03:53:44;;;;;;;6.93;2.65;;;13.60;99.90;;;;;;6253454;28;20048;-78
2023/07/18 03:56:46;;;;;;;6.82;2.28;;;13.70;99.90;;;;;;6254323;28;20574;-80
2023/07/18 03:59:48;;;;;;;4.88;2.17;;;13.70;99.90;;;;;;6254501;28;20050;-80
2023/07/18 04:02:50;;;;;;;3.20;2.58;;;13.80;99.90;;;;;;6254167;28;20049;-80
2023/07/18 04:05:52;;;;;;;6.85;2.25;;;13.80;99.90;;;;;;6254109;28;20133;-81
2023/07/18 04:08:55;;;;;;;6.25;2.67;;;13.90;99.90;;;;;;6250524;28;20049;-80
2023/07/18 04:11:57;;;;;;;3.58;2.00;;;13.90;99.90;;;;;;6253140;28;20049;-81
2023/07/18 04:14:58;;;;;;;9.20;2.80;;;14.00;99.90;;;;;;6254106;28;20046;-79
2023/07/18 04:18:00;;;;;;;4.63;2.17;;;14.00;99.90;;;;;;6254062;28;20049;-81
2023/07/18 04:21:02;;;;;;;6.88;2.33;;;14.00;99.90;;;;;;6254072;28;20103;-79
2023/07/18 04:24:08;;;;;;;5.53;2.40;;;14.00;99.90;;;;;;6254094;28;20056;-80
2023/07/18 04:27:10;;;;;;;2.53;1.85;;;14.10;99.90;;;;;;6255484;28;20128;-79
2023/07/18 04:30:12;;;;;;;7.63;2.53;;;14.10;99.90;;;;;;6253912;28;20052;-79
2023/07/18 04:33:14;;;;;;;4.07;2.03;;;14.10;99.90;;;;;;6254251;28;20045;-80
2023/07/18 04:36:16;;;;;;;2.40;1.80;;;14.20;99.90;;;;;;6254554;28;20172;-81
2023/07/18 04:39:19;;;;;;;5.18;1.55;;;14.30;99.90;;;;;;6255159;28;20049;-80
2023/07/18 04:42:21;;;;;;;3.55;2.10;;;14.60;99.90;;;;;;6254123;28;20049;-80
2023/07/18 04:45:22;;;;;;;5.72;2.60;;;14.90;99.90;;;;;;6254843;28;20060;-80
2023/07/18 04:48:24;;;;;;;5.40;2.88;;;15.10;99.90;;;;;;6252808;28;20041;-81
2023/07/18 04:51:26;;;;;;;3.67;2.17;;;15.40;99.90;;;;;;6255539;28;20056;-80
2023/07/18 04:54:29;;;;;;;5.80;2.28;;;15.60;99.90;;;;;;6254182;28;20045;-80
2023/07/18 04:57:31;;;;;;;1.98;1.80;;;15.70;99.90;;;;;;6254195;28;20105;-81
2023/07/18 05:00:33;;;;;;;3.63;2.25;;;15.70;99.90;;;;;;6254290;28;20556;-80
2023/07/18 05:03:35;;;;;;;3.15;2.00;;;15.70;99.90;;;;;;6252250;28;20057;-81
2023/07/18 05:06:36;;;;;;;3.40;1.85;;;15.90;99.90;;;;;;6256495;28;20052;-79
2023/07/18 05:09:39;;;;;;;5.40;2.22;;;15.90;99.90;;;;;;6253071;28;20049;-79
2023/07/18 05:12:42;;;;;;;5.90;2.03;;;16.10;99.90;;;;;;6255475;28;20045;-80
2023/07/18 05:15:44;;;;;;;4.68;2.63;;;16.30;99.90;;;;;;6253438;28;20522;-79
2023/07/18 05:18:46;;;;;;;3.97;1.88;;;16.60;99.90;;;;;;6253296;28;20054;-79
2023/07/18 05:21:47;;;;;;;3.58;2.17;;;16.90;99.90;;;;;;6251661;28;20499;-79
2023/07/18 05:24:50;;;;;;;3.90;1.73;;;17.10;99.90;;;;;;6254734;28;20053;-80
2023/07/18 05:27:56;;;;;;;9.32;2.10;;;17.40;99.90;;;;;;6238758;28;20053;-79
2023/07/18 05:30:57;;;;;;;5.05;2.90;;;17.60;99.90;;;;;;6246680;28;20128;-78
2023/07/18 05:33:59;;;;;;;8.32;2.22;;;17.90;99.90;;;;;;6250818;28;20037;-79
2023/07/18 05:37:01;;;;;;;5.30;2.00;;;18.30;99.90;;;;;;6251875;28;20053;-81
2023/07/18 05:40:08;;;;;;;7.28;2.50;;;18.80;99.90;;;;;;6248452;28;20056;-79
2023/07/18 05:43:10;;;;;;;7.57;2.38;;;19.50;99.90;;;;;;6253932;28;20080;-80
2023/07/18 05:46:12;;;;;;;3.63;2.28;;;20.40;99.90;;;;;;6251244;28;20045;-78
2023/07/18 05:49:14;;;;;;;6.90;2.35;;;21.70;99.90;;;;;;6258682;28;20495;-80
2023/07/18 05:52:15;;;;;;;5.35;2.10;;;22.90;99.90;;;;;;6256379;28;20041;-79
2023/07/18 05:55:18;;;;;;;3.22;2.00;;;23.90;96.10;;;;;;6253956;28;20037;-79
2023/07/18 05:58:20;;;;;;;4.75;1.73;;;23.80;93.10;;;;;;6255946;28;20042;-79
2023/07/18 06:01:22;;;;;;;4.00;1.98;;;23.50;92.00;;;;;;6255633;28;20049;-79
2023/07/18 06:04:23;;;;;;;4.30;2.35;;;23.30;90.70;;;;;;6255464;28;20727;-79
2023/07/18 06:07:25;;;;;;;4.53;1.98;;;23.10;90.10;;;;;;6251960;28;20113;-78
2023/07/18 06:10:28;;;;;;;5.50;2.22;;;22.90;89.30;;;;;;6252893;28;20050;-79
2023/07/18 06:13:30;;;;;;;3.67;1.85;;;22.80;88.10;;;;;;6253096;28;20727;-79
2023/07/18 06:16:32;;;;;;;5.00;1.80;;;22.70;86.80;;;;;;6258187;28;20041;-79
2023/07/18 06:19:34;;;;;;;2.42;1.45;;;22.50;86.10;;;;;;6256677;28;20049;-80
2023/07/18 06:22:36;;;;;;;5.50;2.38;;;22.30;85.20;;;;;;6255748;28;20053;-80
2023/07/18 06:25:39;;;;;;;12.88;2.03;;;22.20;84.60;;;;;;6254914;28;20049;-79
2023/07/18 06:28:40;;;;;;;2.72;1.45;;;22.10;84.10;;;;;;6254459;28;20046;-80
2023/07/18 06:31:42;;;;;;;11.40;2.38;;;22.00;83.90;;;;;;6254930;28;20055;-80
2023/07/18 06:34:44;;;;;;;2.85;1.98;;;22.00;83.80;;;;;;6255504;28;20049;-79
2023/07/18 06:37:46;;;;;;;4.40;1.58;;;22.00;83.50;;;;;;6254764;28;20061;-79
2023/07/18 06:40:49;;;;;;;5.18;1.38;;;22.00;83.00;;;;;;6255807;28;20056;-79
2023/07/18 06:43:53;;;;;;;5.55;1.75;;;22.10;83.20;;;;;;6243826;28;20136;-79
2023/07/18 06:46:55;;;;;;;13.25;1.95;;;22.20;82.80;;;;;;6239910;28;20132;-78
2023/07/18 06:49:56;;;;;;;4.32;1.40;;;22.30;82.50;;;;;;6255213;28;20037;-77
2023/07/18 06:52:58;;;;;;;3.63;1.60;;;22.50;82.50;;;;;;6252884;28;21398;-80
2023/07/18 06:56:01;;;;;;;3.33;1.85;;;22.70;81.50;;;;;;6253209;28;20060;-79
2023/07/18 06:59:03;;;;;;;6.50;1.30;;;22.80;80.30;;;;;;6248915;28;20053;-79
2023/07/18 07:02:05;;;;;;;11.48;1.80;;;22.90;79.80;;;;;;6249972;28;20048;-81
2023/07/18 07:05:08;;;;;;;3.90;2.15;;;23.00;78.70;;;;;;6250026;28;20041;-79
2023/07/18 07:08:12;;;;;;;7.55;1.75;;;23.10;77.90;;;;;;6256834;28;20054;-80
2023/07/18 07:11:15;;;;;;;5.43;1.73;;;23.20;77.40;;;;;;6259888;28;20065;-80
2023/07/18 07:14:17;;;;;;;2.70;1.40;;;23.30;77.30;;;;;;6253100;28;20034;-80
2023/07/18 07:17:18;;;;;;;5.72;2.22;;;23.50;76.50;;;;;;6256576;28;20041;-79
2023/07/18 07:20:20;;;;;;;4.93;1.70;;;23.50;76.10;;;;;;6255610;28;20068;-80
2023/07/18 07:23:22;;;;;;;5.82;1.92;;;23.70;76.20;;;;;;6255232;28;20073;-80
2023/07/18 07:26:26;;;;;;;3.30;1.65;;;23.90;75.10;;;;;;6256691;28;20049;-80
2023/07/18 07:29:27;;;;;;;5.60;1.73;;;24.00;74.70;;;;;;6252760;28;20052;-81
2023/07/18 07:32:29;;;;;;;5.18;2.03;;;24.20;74.80;;;;;;6253888;28;20041;-81
2023/07/18 07:35:31;;;;;;;3.83;1.85;;;24.30;74.00;;;;;;6254499;28;20044;-79
2023/07/18 07:38:32;;;;;;;4.43;1.30;;;24.40;73.70;;;;;;6246498;28;20061;-79
2023/07/18 07:41:35;;;;;;;3.97;1.52;;;24.50;73.40;;;;;;6256571;28;20060;-79
2023/07/18 07:44:37;;;;;;;6.00;1.65;;;24.60;72.30;;;;;;6254581;28;20057;-79
2023/07/18 07:47:39;;;;;;;4.53;2.28;;;24.60;72.10;;;;;;6259846;28;20518;-80
2023/07/18 07:50:41;;;;;;;3.00;2.15;;;24.70;71.50;;;;;;6255591;28;20041;-80
2023/07/18 07:53:43;;;;;;;6.40;1.95;;;24.80;71.60;;;;;;6255573;28;20053;-79
2023/07/18 07:56:46;;;;;;;7.07;2.47;;;25.10;71.40;;;;;;6255220;28;20140;-80
2023/07/18 07:59:48;;;;;;;13.60;2.33;;;25.30;70.30;;;;;;6253088;28;20049;-79
2023/07/18 08:02:49;;;;;;;7.32;2.30;;;25.30;69.70;;;;;;6254568;28;20565;-80
2023/07/18 08:05:51;;;;;;;5.13;1.95;;;25.50;69.00;;;;;;6256305;28;20488;-80
2023/07/18 08:08:53;;;;;;;4.43;2.40;;;25.30;68.50;;;;;;6257939;28;20484;-80
2023/07/18 08:11:56;;;;;;;5.32;2.10;;;25.30;69.00;;;;;;6251993;28;20523;-80
2023/07/18 08:14:58;;;;;;;5.13;2.08;;;25.40;68.60;;;;;;6253585;28;20083;-80
2023/07/18 08:18:00;;;;;;;3.40;1.63;;;25.60;68.20;;;;;;6255611;28;20431;-80
2023/07/18 08:21:01;;;;;;;4.28;1.58;;;25.60;67.70;;;;;;6253130;28;20045;-79
2023/07/18 08:24:03;;;;;;;4.30;1.50;;;25.70;67.30;;;;;;6251847;28;20045;-79
2023/07/18 08:27:08;;;;;;;3.83;2.22;;;25.90;67.20;;;;;;6254769;28;20052;-80
2023/07/18 08:30:11;;;;;;;5.15;1.80;;;25.90;66.50;;;;;;6255894;28;20060;-80
2023/07/18 08:33:13;;;;;;;2.63;2.05;;;26.00;66.60;;;;;;6253466;28;20056;-80
2023/07/18 08:36:15;;;;;;;4.85;2.03;;;26.20;66.10;;;;;;6253402;28;20127;-80
2023/07/18 08:39:18;;;;;;;4.60;2.15;;;26.50;65.60;;;;;;6254668;28;20057;-79
2023/07/18 08:42:25;;;;;;;5.00;1.83;;;26.80;65.10;;;;;;6243937;28;21519;-81
2023/07/18 08:45:31;;;;;;;2.38;1.58;;;27.00;64.30;;;;;;6240517;28;20052;-80
2023/07/18 08:48:33;;;;;;;5.80;2.28;;;27.20;64.50;;;;;;6247614;28;20048;-80
2023/07/18 08:51:35;;;;;;;6.15;1.95;;;27.40;63.50;;;;;;6248520;28;20052;-80
2023/07/18 08:54:37;;;;;;;5.13;2.03;;;27.50;62.40;;;;;;6244785;28;20393;-80
2023/07/18 08:57:41;;;;;;;4.28;1.90;;;27.60;62.00;;;;;;6228263;28;20040;-81
2023/07/18 09:00:43;;;;;;;2.40;1.70;;;27.80;61.30;;;;;;6257912;28;20121;-80
2023/07/18 09:03:45;;;;;;;3.50;1.65;;;27.90;61.10;;;;;;6258318;28;20053;-79
2023/07/18 09:06:48;;;;;;;5.38;2.20;;;28.10;60.30;;;;;;6256743;28;20057;-81
2023/07/18 09:09:49;;;;;;;5.80;2.65;;;28.00;59.20;;;;;;6258981;28;20620;-80
2023/07/18 09:12:53;;;;;;;4.32;1.40;;;27.80;59.70;;;;;;6251092;28;20403;-80
2023/07/18 09:15:55;;;;;;;3.95;1.65;;;27.80;59.10;;;;;;6253254;28;20076;-80
2023/07/18 09:18:57;;;;;;;3.20;2.17;;;27.80;58.80;;;;;;6256913;28;20059;-80
2023/07/18 09:21:59;;;;;;;2.05;1.38;;;27.90;58.50;;;;;;6250035;28;20060;-79
2023/07/18 09:25:01;;;;;;;13.55;2.08;;;28.00;58.30;;;;;;6249206;28;20038;-81
2023/07/18 09:28:04;;;;;;;4.90;1.58;;;28.00;58.60;;;;;;6249331;28;20404;-78
2023/07/18 09:31:17;;;;;;;3.70;2.15;;;28.10;58.50;;;;;;6245972;28;20049;-81
2023/07/18 09:34:19;;;;;;;6.82;2.28;;;28.30;57.90;;;;;;6222249;28;20045;-80
2023/07/18 09:37:21;;;;;;;4.57;2.13;;;28.50;57.10;;;;;;6235721;28;20053;-79
2023/07/18 09:40:23;;;;;;;2.28;1.60;;;28.60;57.10;;;;;;6248385;28;20057;-79
2023/07/18 09:43:28;;;;;;;4.90;1.48;;;28.90;56.60;;;;;;6248909;28;20052;-81
2023/07/18 09:46:30;;;;;;;6.93;2.83;;;29.20;55.80;;;;;;6250469;28;20037;-81
2023/07/18 09:49:33;;;;;;;2.03;1.45;;;29.20;55.80;;;;;;6246106;28;20046;-79
2023/07/18 09:52:37;;;;;;;3.90;1.95;;;29.00;55.50;;;;;;6247905;28;20045;-78
2023/07/18 09:55:40;;;;;;;4.55;1.65;;;28.90;55.20;;;;;;6249621;28;20057;-81
2023/07/18 09:58:45;;;;;;;3.65;1.67;;;28.70;55.30;;;;;;6246001;28;20060;-79
2023/07/18 10:01:49;;;;;;;9.32;1.58;;;28.60;55.40;;;;;;6249306;28;20045;-79
2023/07/18 10:04:50;;;;;;;4.28;1.80;;;28.60;56.00;;;;;;6249275;28;20054;-79
2023/07/18 10:07:52;;;;;;;6.93;2.22;;;28.50;55.90;;;;;;6246427;28;20062;-77
2023/07/18 10:11:02;;;;;;;6.95;2.17;;;28.30;55.90;;;;;;6248931;28;20566;-79
2023/07/18 10:14:15;;;;;;;4.70;1.73;;;28.30;56.90;;;;;;6224585;28;20133;-79
2023/07/18 10:17:33;;;;;;;6.68;1.83;;;28.10;56.60;;;;;;6218734;28;20119;-79
2023/07/18 10:20:35;;;;;;;;;;;28.10;56.80;;;;;;6217423;28;20121;-79
2023/07/18 10:23:41;;;;;;;4.85;1.63;;;28.20;57.00;;;;;;6218789;28;19984;-80
2023/07/18 10:26:43;;;;;;;3.67;1.55;;;28.40;56.80;;;;;;6242398;28;20111;-80
2023/07/18 10:30:03;;;;;;;4.97;1.50;;;28.60;56.30;;;;;;6242703;28;20049;-79
2023/07/18 10:33:08;;;;;;;3.08;1.33;;;28.60;55.80;;;;;;6243490;28;20046;-80
2023/07/18 10:36:24;;;;;;;4.13;1.40;;;28.60;55.60;;;;;;6248159;28;20104;-80
2023/07/18 10:39:40;;;;;;;3.90;1.73;;;28.60;55.50;;;;;;6248649;28;20056;-80
2023/07/18 10:42:44;;;;;;;7.05;1.88;;;28.90;55.60;;;;;;6223677;28;20417;-80
2023/07/18 10:45:47;;;;;;;3.17;1.60;;;29.20;54.90;;;;;;6223081;28;20049;-79
2023/07/18 10:48:50;;;;;;;3.13;1.50;;;29.30;54.10;;;;;;6225406;28;20046;-80
2023/07/18 10:51:55;;;;;;;3.83;1.48;;;29.20;54.30;;;;;;6221779;28;20052;-80
2023/07/18 10:54:58;;;;;;;3.25;1.98;;;29.10;53.50;;;;;;6224671;28;20045;-79
2023/07/18 10:58:00;;;;;;;4.97;1.85;;;28.90;53.70;;;;;;6223175;28;20054;-79
2023/07/18 11:01:03;;;;;;;3.22;1.58;;;28.70;53.80;;;;;;6221977;28;20061;-79
2023/07/18 11:04:08;;;;;;;5.40;2.38;;;28.60;53.80;;;;;;6223656;28;20381;-80
2023/07/18 11:07:10;;;;;;;12.23;2.65;;;28.40;54.60;;;;;;6228871;28;20037;-79
2023/07/18 11:10:13;;;;;;;2.95;2.10;;;28.10;55.70;;;;;;6232751;28;20064;-80
2023/07/18 11:13:14;;;;;;;6.43;2.70;;;27.90;56.30;;;;;;6232465;28;20049;-79
2023/07/18 11:16:18;;;;;;;4.82;2.10;;;27.90;56.60;;;;;;6224900;28;20053;-79
2023/07/18 11:19:20;;;;;;;4.40;2.08;;;27.80;56.80;;;;;;6225756;28;20042;-80
2023/07/18 11:22:22;;;;;;;7.07;2.00;;;27.80;57.00;;;;;;6245529;28;20504;-79
2023/07/18 11:25:23;;;;;;;3.97;1.88;;;27.90;57.00;;;;;;6248257;28;20044;-79
2023/07/18 11:28:29;;;;;;;6.00;2.65;;;27.80;57.30;;;;;;6247457;28;20050;-80
2023/07/18 11:31:39;;;;;;;6.63;2.67;;;27.90;57.50;;;;;;6250970;28;20079;-78
2023/07/18 11:34:41;;;;;;;8.93;1.73;;;28.10;56.80;;;;;;6248694;28;20048;-80
2023/07/18 11:37:42;;;;;;;5.88;1.92;;;28.40;56.40;;;;;;6253824;28;20053;-80
2023/07/18 11:40:44;;;;;;;4.60;1.52;;;28.80;56.00;;;;;;6252247;28;20040;-79
2023/07/18 11:43:47;;;;;;;7.97;2.33;;;29.20;55.30;;;;;;6248624;28;20499;-78
2023/07/18 11:46:53;;;;;;;7.72;3.00;;;29.50;54.80;;;;;;6253103;28;20412;-78
2023/07/18 11:50:01;;;;;;;6.65;1.90;;;29.80;54.70;;;;;;6252101;28;20093;-79
2023/07/18 11:53:04;;;;;;;3.25;1.67;;;30.00;54.00;;;;;;6257310;28;20404;-80
2023/07/18 11:56:06;;;;;;;7.05;1.92;;;30.40;53.60;;;;;;6254591;28;20053;-78
2023/07/18 11:59:09;;;;;;;4.22;1.80;;;30.40;53.40;;;;;;6249965;28;20416;-79
2023/07/18 12:02:12;;;;;;;5.22;1.52;;;30.40;53.40;;;;;;6246768;28;20049;-80
2023/07/18 12:05:14;;;;;;;3.97;1.73;;;30.50;53.10;;;;;;6248333;28;20049;-80
2023/07/18 12:08:16;;;;;;;3.92;2.05;;;30.50;52.40;;;;;;6241535;28;21148;-77
2023/07/18 12:11:19;;;;;;;6.55;2.35;;;30.30;52.20;;;;;;6225542;28;20050;-76
2023/07/18 12:14:20;;;;;;;5.45;1.63;;;30.20;52.70;;;;;;6222123;28;20050;-79
2023/07/18 12:17:24;;;;;;;5.78;1.50;;;30.40;53.40;;;;;;6224882;28;20421;-78
2023/07/18 12:20:25;;;;;;;6.00;2.05;;;30.80;53.10;;;;;;6227958;28;20374;-79
2023/07/18 12:23:27;;;;;;;2.95;1.58;;;31.10;52.90;;;;;;6248036;28;20049;-78
2023/07/18 12:26:29;;;;;;;5.28;1.75;;;31.80;52.00;;;;;;6248200;28;20060;-79
2023/07/18 12:29:30;;;;;;;2.33;1.80;;;32.30;50.40;;;;;;6247265;28;20068;-77
2023/07/18 12:32:33;;;;;;;3.58;2.08;;;32.30;50.10;;;;;;6245417;28;20049;-79
2023/07/18 12:35:35;;;;;;;3.10;1.65;;;32.30;49.10;;;;;;6249337;28;20420;-78
2023/07/18 12:38:37;;;;;;;5.53;2.40;;;32.20;49.10;;;;;;6246250;28;20049;-79
2023/07/18 12:41:38;;;;;;;2.53;1.30;;;32.30;48.90;;;;;;6246128;28;20893;-78
2023/07/18 12:44:44;;;;;;;3.17;1.80;;;32.60;49.00;;;;;;6246160;28;20049;-80
2023/07/18 12:47:48;;;;;;;3.13;1.27;;;32.70;47.90;;;;;;6247008;28;20053;-79
2023/07/18 12:50:50;;;;;;;4.22;2.20;;;32.60;48.00;;;;;;6248844;28;20096;-79
2023/07/18 12:53:52;;;;;;;4.35;1.90;;;32.70;48.30;;;;;;6251529;28;20049;-79
2023/07/18 12:56:54;;;;;;;2.70;1.90;;;32.90;47.90;;;;;;6240157;28;20408;-79
2023/07/18 12:59:56;;;;;;;2.35;1.65;;;33.20;47.40;;;;;;6250405;28;20042;-80
2023/07/18 13:02:59;;;;;;;4.75;2.17;;;33.20;47.60;;;;;;6241687;28;20057;-79
2023/07/18 13:06:01;;;;;;;9.15;2.72;;;32.80;47.30;;;;;;6222030;28;20052;-80
2023/07/18 13:09:03;;;;;;;2.53;1.90;;;32.70;47.40;;;;;;6219687;28;20038;-78
2023/07/18 13:12:05;;;;;;;5.50;3.28;;;32.80;47.40;;;;;;6218978;28;20042;-78
2023/07/18 13:15:08;;;;;;;3.60;2.00;;;32.80;47.30;;;;;;6222451;28;20054;-77
2023/07/18 13:18:11;;;;;;;6.60;2.45;;;33.00;46.90;;;;;;6219133;28;20500;-78
2023/07/18 13:21:13;;;;;;;9.60;2.63;;;33.50;47.30;;;;;;6222828;28;20048;-79
2023/07/18 13:24:15;;;;;;;3.38;2.60;;;33.70;46.40;;;;;;6231721;28;20064;-79
2023/07/18 13:27:17;;;;;;;4.20;1.80;;;33.60;46.30;;;;;;6251628;28;20067;-79
2023/07/18 13:30:18;;;;;;;3.50;1.92;;;33.70;46.00;;;;;;6248760;28;20123;-78
2023/07/18 13:33:22;;;;;;;3.80;2.50;;;33.70;45.80;;;;;;6232263;28;20409;-78
2023/07/18 13:36:23;;;;;;;5.70;2.80;;;33.90;46.20;;;;;;6221602;28;20049;-77
2023/07/18 13:39:25;;;;;;;4.25;2.47;;;34.10;45.60;;;;;;6220630;28;20046;-77
2023/07/18 13:42:27;;;;;;;5.00;2.40;;;33.90;45.40;;;;;;6219791;28;20042;-77
2023/07/18 13:45:29;;;;;;;4.93;2.28;;;34.00;45.80;;;;;;6223853;28;20054;-76
2023/07/18 13:48:34;;;;;;;3.40;2.47;;;34.20;45.40;;;;;;6218870;28;20351;-77
2023/07/18 13:51:35;;;;;;;3.83;2.42;;;34.30;45.40;;;;;;6218593;28;20045;-78
2023/07/18 13:54:37;;;;;;;4.30;2.08;;;34.70;45.20;;;;;;6220176;28;20057;-79
2023/07/18 13:57:39;;;;;;;2.88;2.53;;;35.10;44.90;;;;;;6222922;28;20053;-79
2023/07/18 14:00:40;;;;;;;3.65;2.45;;;35.50;44.30;;;;;;6221486;28;20057;-77
2023/07/18 14:03:43;;;;;;;4.40;2.03;;;35.40;43.70;;;;;;6218121;28;20065;-78
2023/07/18 14:06:45;;;;;;;3.53;2.42;;;35.50;43.00;;;;;;6222205;28;20053;-78
2023/07/18 14:09:47;;;;;;;6.15;3.58;;;35.00;42.90;;;;;;6224532;28;20046;-78
2023/07/18 14:12:49;;;;;;;6.15;2.30;;;34.80;43.10;;;;;;6223264;28;20053;-80
2023/07/18 14:15:50;;;;;;;3.85;2.42;;;34.70;43.20;;;;;;6221471;28;20477;-77
2023/07/18 14:18:56;;;;;;;5.63;2.63;;;34.60;43.60;;;;;;6222531;28;20058;-79
2023/07/18 14:21:57;;;;;;;4.63;2.35;;;34.80;43.90;;;;;;6225036;28;20337;-78
2023/07/18 14:24:59;;;;;;;4.07;2.92;;;35.10;43.60;;;;;;6229565;28;20094;-78
2023/07/18 14:28:01;;;;;;;9.63;2.78;;;35.10;43.60;;;;;;6228295;28;20042;-79
2023/07/18 14:31:02;;;;;;;3.38;2.47;;;35.00;43.60;;;;;;6231146;28;20056;-78
2023/07/18 14:34:05;;;;;;;4.97;2.63;;;35.10;43.60;;;;;;6231490;28;20038;-79
2023/07/18 14:37:07;;;;;;;9.60;2.30;;;35.40;43.80;;;;;;6230077;28;20071;-79
2023/07/18 14:40:10;;;;;;;7.60;2.83;;;35.70;43.40;;;;;;6235927;28;20053;-79
2023/07/18 14:43:11;;;;;;;6.40;2.42;;;36.00;43.20;;;;;;6252590;28;20068;-79
2023/07/18 14:46:13;;;;;;;4.50;2.13;;;36.30;42.70;;;;;;6255469;28;20045;-78
2023/07/18 14:49:16;;;;;;;5.25;2.40;;;36.40;42.40;;;;;;6255150;28;20057;-79
2023/07/18 14:52:19;;;;;;;4.30;2.63;;;36.00;42.40;;;;;;6252623;28;20037;-78
2023/07/18 14:55:20;;;;;;;5.00;2.38;;;36.00;42.80;;;;;;6255648;28;20053;-78
2023/07/18 14:58:22;;;;;;;5.00;2.42;;;36.10;42.80;;;;;;6255226;28;20084;-79
2023/07/18 15:01:24;;;;;;;4.93;2.10;;;36.30;42.70;;;;;;6252654;28;20048;-78
2023/07/18 15:04:27;;;;;;;6.30;2.40;;;36.30;42.40;;;;;;6243781;28;20163;-78
2023/07/18 15:07:30;;;;;;;6.40;2.95;;;36.40;42.10;;;;;;6253102;28;20056;-79
2023/07/18 15:10:32;;;;;;;5.03;2.35;;;36.50;41.80;;;;;;6249872;28;20060;-77
2023/07/18 15:13:33;;;;;;;7.60;3.25;;;36.30;41.50;;;;;;6251703;28;20099;-79
2023/07/18 15:16:35;;;;;;;5.40;2.20;;;36.30;42.00;;;;;;6256482;28;20049;-79
2023/07/18 15:19:39;;;;;;;5.50;2.42;;;36.20;42.10;;;;;;6251938;28;20103;-79
2023/07/18 15:22:41;;;;;;;5.10;2.70;;;35.50;42.10;;;;;;6254347;28;20060;-80
2023/07/18 15:25:45;;;;;;;6.82;3.33;;;34.80;42.90;;;;;;6252954;28;20396;-82
2023/07/18 15:28:46;;;;;;;5.20;2.88;;;34.60;43.60;;;;;;6253651;28;20057;-80
2023/07/18 15:31:48;;;;;;;4.97;2.53;;;34.60;44.00;;;;;;6255498;28;20076;-81
2023/07/18 15:34:51;;;;;;;3.65;2.75;;;34.20;44.00;;;;;;6254892;28;20454;-82
2023/07/18 15:37:53;;;;;;;3.90;2.50;;;33.90;44.70;;;;;;6252990;28;20045;-82
2023/07/18 15:40:55;;;;;;;4.72;3.00;;;34.00;45.00;;;;;;6255946;28;20045;-82
2023/07/18 15:43:56;;;;;;;5.90;2.85;;;34.10;44.90;;;;;;6257663;28;20473;-81
2023/07/18 15:46:59;;;;;;;3.47;2.58;;;34.30;44.50;;;;;;6256168;28;20543;-81
2023/07/18 15:50:02;;;;;;;6.45;3.08;;;34.30;44.30;;;;;;6256805;28;22738;-81
2023/07/18 15:53:04;;;;;;;8.25;3.28;;;34.00;44.40;;;;;;6256868;28;20041;-80